Time;durP1;ratioP1;P1;durP2;ratioP2;P2;SDS_P1;SDS_P2;PMS_P1;PMS_P2;Temp;Humidity;BMP_temperature;BMP_pressure;BME280_temperature;BME280_humidity;BME280_pressure;Samples;Min_cycle;Max_cycle;Signal;HPM_P1;HPM_P2
2024/03/05 00:01:03;;;;;;;65.67;32.83;;;;;;;;;;5083492;28;20479;-67
2024/03/05 00:03:31;;;;;;;89.60;38.10;;;;;;;;;;5082920;28;20515;-67
2024/03/05 00:05:57;;;;;;;99.30;40.77;;;;;;;;;;5082101;28;20967;-68
2024/03/05 00:08:24;;;;;;;95.73;36.57;;;;;;;;;;5082341;28;20508;-68
2024/03/05 00:10:50;;;;;;;84.23;36.03;;;;;;;;;;5085960;28;20548;-67
2024/03/05 00:13:17;;;;;;;105.83;38.47;;;;;;;;;;5088544;28;20436;-67
2024/03/05 00:15:45;;;;;;;93.77;37.67;;;;;;;;;;5086651;28;20475;-68
2024/03/05 00:18:11;;;;;;;98.00;39.03;;;;;;;;;;5082913;28;20551;-67
2024/03/05 00:20:39;;;;;;;98.57;40.37;;;;;;;;;;5079360;28;20501;-67
2024/03/05 00:23:05;;;;;;;99.27;39.80;;;;;;;;;;5082979;28;20958;-67
2024/03/05 00:25:32;;;;;;;94.20;37.93;;;;;;;;;;5085005;28;20477;-67
2024/03/05 00:27:58;;;;;;;94.23;38.77;;;;;;;;;;5084158;28;20443;-67
2024/03/05 00:30:24;;;;;;;90.73;37.43;;;;;;;;;;5080907;28;20488;-67
2024/03/05 00:32:51;;;;;;;97.03;41.23;;;;;;;;;;5086821;28;20471;-68
2024/03/05 00:35:17;;;;;;;94.70;36.97;;;;;;;;;;5085449;28;20524;-68
2024/03/05 00:37:45;;;;;;;90.03;38.90;;;;;;;;;;5077438;28;20516;-68
2024/03/05 00:40:12;;;;;;;90.53;38.90;;;;;;;;;;5081910;28;20444;-67
2024/03/05 00:42:38;;;;;;;92.90;39.33;;;;;;;;;;5083566;28;20883;-68
2024/03/05 00:45:06;;;;;;;87.13;36.77;;;;;;;;;;5086637;28;20458;-68
2024/03/05 00:47:33;;;;;;;87.37;35.87;;;;;;;;;;5080276;28;20452;-68
2024/03/05 00:50:00;;;;;;;83.37;38.90;;;;;;;;;;5084247;28;20480;-67
2024/03/05 00:52:26;;;;;;;88.37;36.03;;;;;;;;;;5083071;28;20443;-67
2024/03/05 00:54:54;;;;;;;84.90;36.43;;;;;;;;;;5077295;28;20503;-68
2024/03/05 00:57:20;;;;;;;84.80;38.97;;;;;;;;;;5075674;28;20510;-68
2024/03/05 00:59:47;;;;;;;86.23;36.40;;;;;;;;;;5079023;28;20527;-68
2024/03/05 01:02:13;;;;;;;84.43;37.00;;;;;;;;;;5080685;28;20493;-68
2024/03/05 01:04:40;;;;;;;84.30;35.63;;;;;;;;;;5075183;28;20555;-68
2024/03/05 01:07:06;;;;;;;101.53;38.13;;;;;;;;;;5085953;28;20666;-67
2024/03/05 01:09:33;;;;;;;90.13;39.00;;;;;;;;;;5080113;28;20440;-68
2024/03/05 01:12:01;;;;;;;113.67;40.63;;;;;;;;;;5083912;28;20479;-68
2024/03/05 01:14:27;;;;;;;113.30;41.93;;;;;;;;;;5088207;28;20455;-68
2024/03/05 01:16:54;;;;;;;89.40;37.93;;;;;;;;;;5075529;28;20888;-68
2024/03/05 01:19:20;;;;;;;100.10;40.23;;;;;;;;;;5084030;28;20500;-67
2024/03/05 01:21:47;;;;;;;101.03;41.23;;;;;;;;;;5073947;28;20490;-67
2024/03/05 01:24:13;;;;;;;106.30;38.63;;;;;;;;;;5075446;28;20437;-68
2024/03/05 01:26:43;;;;;;;106.60;43.50;;;;;;;;;;5080257;28;20488;-68
2024/03/05 01:29:12;;;;;;;110.03;39.87;;;;;;;;;;5076276;28;20516;-68
2024/03/05 01:31:38;;;;;;;123.90;48.80;;;;;;;;;;5082668;28;20515;-67
2024/03/05 01:34:05;;;;;;;113.30;42.70;;;;;;;;;;5074867;28;20507;-68
2024/03/05 01:36:31;;;;;;;112.53;40.97;;;;;;;;;;5081785;28;20488;-68
2024/03/05 01:38:58;;;;;;;106.80;41.70;;;;;;;;;;5078241;28;20512;-67
2024/03/05 01:41:24;;;;;;;104.37;41.13;;;;;;;;;;5075786;28;20479;-67
2024/03/05 01:43:51;;;;;;;94.13;38.30;;;;;;;;;;5078054;28;20508;-68
2024/03/05 01:46:19;;;;;;;100.80;43.40;;;;;;;;;;5077607;28;20522;-68
2024/03/05 01:48:47;;;;;;;96.93;42.23;;;;;;;;;;5078528;28;20887;-68
2024/03/05 01:51:14;;;;;;;105.93;40.10;;;;;;;;;;5079380;28;20452;-68
2024/03/05 01:53:43;;;;;;;104.50;41.57;;;;;;;;;;5080786;28;20443;-68
2024/03/05 01:56:10;;;;;;;106.90;40.80;;;;;;;;;;5086102;28;20448;-68
2024/03/05 01:58:36;;;;;;;102.77;40.60;;;;;;;;;;5079658;28;20525;-68
2024/03/05 02:01:06;;;;;;;99.30;40.60;;;;;;;;;;5084806;28;20439;-67
2024/03/05 02:03:35;;;;;;;104.87;41.53;;;;;;;;;;5078420;28;21169;-68
2024/03/05 02:06:02;;;;;;;104.37;39.93;;;;;;;;;;5084569;28;20439;-67
2024/03/05 02:08:28;;;;;;;99.87;37.40;;;;;;;;;;5073906;28;20460;-68
2024/03/05 02:10:55;;;;;;;109.03;40.17;;;;;;;;;;5087117;28;20447;-67
2024/03/05 02:13:21;;;;;;;97.53;39.33;;;;;;;;;;5083694;28;20468;-68
2024/03/05 02:15:49;;;;;;;104.73;41.87;;;;;;;;;;5077843;28;20471;-68
2024/03/05 02:18:15;;;;;;;96.23;39.30;;;;;;;;;;5079047;28;20488;-68
2024/03/05 02:20:43;;;;;;;98.87;40.17;;;;;;;;;;5080018;28;20504;-67
2024/03/05 02:23:11;;;;;;;107.23;41.87;;;;;;;;;;5075864;28;20551;-67
2024/03/05 02:25:37;;;;;;;103.70;42.57;;;;;;;;;;5075126;28;20478;-68
2024/03/05 02:28:05;;;;;;;110.53;41.60;;;;;;;;;;5076311;28;20464;-68
2024/03/05 02:30:32;;;;;;;113.27;42.30;;;;;;;;;;5076644;28;20459;-68
2024/03/05 02:32:59;;;;;;;118.83;43.77;;;;;;;;;;5077025;28;20483;-68
2024/03/05 02:35:25;;;;;;;108.93;43.63;;;;;;;;;;5085647;28;20483;-68
2024/03/05 02:37:51;;;;;;;99.97;39.60;;;;;;;;;;5084125;28;20447;-67
2024/03/05 02:40:19;;;;;;;111.67;42.37;;;;;;;;;;5077659;28;20519;-67
2024/03/05 02:42:45;;;;;;;100.13;41.63;;;;;;;;;;5083302;28;20478;-67
2024/03/05 02:45:12;;;;;;;104.00;43.80;;;;;;;;;;5078484;28;20444;-67
2024/03/05 02:47:40;;;;;;;103.13;41.27;;;;;;;;;;5084750;28;20453;-67
2024/03/05 02:50:09;;;;;;;109.83;42.37;;;;;;;;;;5082689;28;20435;-67
2024/03/05 02:52:35;;;;;;;110.27;42.97;;;;;;;;;;5075726;28;20483;-67
2024/03/05 02:55:02;;;;;;;123.17;43.33;;;;;;;;;;5078163;28;20476;-68
2024/03/05 02:57:31;;;;;;;110.37;43.00;;;;;;;;;;5083644;28;20550;-67
2024/03/05 02:59:57;;;;;;;127.97;43.70;;;;;;;;;;5085277;28;20491;-67
2024/03/05 03:02:24;;;;;;;115.87;43.53;;;;;;;;;;5076583;28;20968;-68
2024/03/05 03:04:51;;;;;;;120.03;42.67;;;;;;;;;;5078768;28;20468;-68
2024/03/05 03:07:17;;;;;;;119.50;44.80;;;;;;;;;;5078312;28;20462;-67
2024/03/05 03:09:45;;;;;;;112.17;42.27;;;;;;;;;;5076181;28;20578;-68
2024/03/05 03:12:11;;;;;;;120.60;44.00;;;;;;;;;;5076792;28;20512;-68
2024/03/05 03:14:41;;;;;;;101.37;42.20;;;;;;;;;;5082293;28;20478;-67
2024/03/05 03:17:07;;;;;;;111.27;46.13;;;;;;;;;;5078143;28;20459;-67
2024/03/05 03:19:34;;;;;;;117.73;43.50;;;;;;;;;;5074206;28;20509;-67
2024/03/05 03:22:00;;;;;;;110.37;43.27;;;;;;;;;;5080369;28;20494;-67
2024/03/05 03:24:27;;;;;;;105.90;42.33;;;;;;;;;;5079102;28;20452;-68
2024/03/05 03:26:53;;;;;;;118.73;45.07;;;;;;;;;;5080081;28;20466;-68
2024/03/05 03:29:20;;;;;;;108.33;45.53;;;;;;;;;;5074499;28;20468;-67
2024/03/05 03:31:48;;;;;;;120.50;46.60;;;;;;;;;;5070396;28;20490;-67
2024/03/05 03:34:16;;;;;;;100.60;40.67;;;;;;;;;;5076715;28;20448;-67
2024/03/05 03:36:42;;;;;;;132.43;44.00;;;;;;;;;;5077259;28;20842;-66
2024/03/05 03:39:11;;;;;;;115.97;45.90;;;;;;;;;;5078195;28;20487;-68
2024/03/05 03:41:39;;;;;;;127.37;45.00;;;;;;;;;;5077565;28;20463;-68
2024/03/05 03:44:06;;;;;;;125.30;44.43;;;;;;;;;;5078040;28;20948;-67
2024/03/05 03:46:34;;;;;;;134.10;46.00;;;;;;;;;;5075021;28;20459;-67
2024/03/05 03:49:02;;;;;;;117.80;43.13;;;;;;;;;;5075550;28;20444;-67
2024/03/05 03:51:29;;;;;;;129.43;44.13;;;;;;;;;;5073532;28;20462;-67
2024/03/05 03:53:56;;;;;;;115.13;41.90;;;;;;;;;;5080686;28;20936;-68
2024/03/05 03:56:23;;;;;;;120.23;43.07;;;;;;;;;;5078555;28;20850;-67
2024/03/05 03:58:49;;;;;;;143.07;46.33;;;;;;;;;;5076903;28;20518;-67
2024/03/05 04:01:15;;;;;;;150.23;46.50;;;;;;;;;;5079005;28;20530;-67
2024/03/05 04:03:42;;;;;;;138.33;45.70;;;;;;;;;;5082976;28;20455;-67
2024/03/05 04:06:09;;;;;;;145.17;45.30;;;;;;;;;;5085417;28;20463;-68
2024/03/05 04:08:36;;;;;;;138.43;43.70;;;;;;;;;;5086685;28;20478;-68
2024/03/05 04:11:02;;;;;;;130.50;46.97;;;;;;;;;;5084713;28;20482;-67
2024/03/05 04:13:29;;;;;;;136.97;46.80;;;;;;;;;;5082785;28;20443;-67
2024/03/05 04:15:55;;;;;;;119.97;43.60;;;;;;;;;;5079097;28;20479;-68
2024/03/05 04:18:22;;;;;;;136.50;43.30;;;;;;;;;;5088148;28;20459;-67
2024/03/05 04:20:48;;;;;;;126.03;44.30;;;;;;;;;;5081051;28;20848;-67
2024/03/05 04:23:16;;;;;;;125.70;45.20;;;;;;;;;;5076847;28;20550;-67
2024/03/05 04:25:43;;;;;;;119.73;45.00;;;;;;;;;;5089265;28;20448;-67
2024/03/05 04:28:12;;;;;;;124.53;46.20;;;;;;;;;;5081641;28;20439;-67
2024/03/05 04:30:39;;;;;;;130.43;43.67;;;;;;;;;;5073662;28;20453;-68
2024/03/05 04:33:08;;;;;;;120.53;44.97;;;;;;;;;;5082558;28;20448;-68
2024/03/05 04:35:35;;;;;;;121.80;42.37;;;;;;;;;;5082676;28;20445;-68
2024/03/05 04:38:01;;;;;;;115.73;41.37;;;;;;;;;;5080907;28;20447;-68
2024/03/05 04:40:29;;;;;;;117.63;42.83;;;;;;;;;;5088571;28;20518;-68
2024/03/05 04:42:56;;;;;;;124.70;44.67;;;;;;;;;;5080463;28;20447;-68
2024/03/05 04:45:22;;;;;;;116.33;45.87;;;;;;;;;;5080023;28;20942;-68
2024/03/05 04:47:50;;;;;;;116.07;43.47;;;;;;;;;;5082109;28;20484;-68
2024/03/05 04:50:17;;;;;;;124.97;43.27;;;;;;;;;;5089783;28;20431;-68
2024/03/05 04:52:43;;;;;;;114.67;41.90;;;;;;;;;;5083550;28;20452;-67
2024/03/05 04:55:10;;;;;;;117.53;42.10;;;;;;;;;;5083022;28;20470;-67
2024/03/05 04:57:38;;;;;;;118.47;41.93;;;;;;;;;;5076076;28;20530;-67
2024/03/05 05:00:11;;;;;;;121.23;43.50;;;;;;;;;;5081704;28;20510;-68
2024/03/05 05:02:38;;;;;;;115.43;40.87;;;;;;;;;;5079283;28;20452;-67
2024/03/05 05:05:04;;;;;;;110.40;40.43;;;;;;;;;;5079705;28;20474;-67
2024/03/05 05:07:31;;;;;;;113.97;42.03;;;;;;;;;;5074393;28;20991;-67
2024/03/05 05:09:57;;;;;;;109.80;40.20;;;;;;;;;;5079139;28;20444;-67
2024/03/05 05:12:24;;;;;;;121.53;43.20;;;;;;;;;;5080132;28;20477;-67
2024/03/05 05:14:51;;;;;;;154.53;45.57;;;;;;;;;;5088293;28;20538;-67
2024/03/05 05:17:18;;;;;;;126.00;43.80;;;;;;;;;;5081985;28;20486;-68
2024/03/05 05:19:44;;;;;;;130.90;44.90;;;;;;;;;;5079828;28;20566;-67
2024/03/05 05:22:11;;;;;;;119.63;42.70;;;;;;;;;;5087886;28;20459;-67
2024/03/05 05:24:38;;;;;;;132.97;45.73;;;;;;;;;;5080152;28;20830;-68
2024/03/05 05:27:05;;;;;;;135.90;47.17;;;;;;;;;;5080174;28;20455;-67
2024/03/05 05:29:31;;;;;;;127.73;45.60;;;;;;;;;;5079347;28;20468;-67
2024/03/05 05:32:01;;;;;;;111.20;40.77;;;;;;;;;;5082691;28;20825;-68
2024/03/05 05:34:27;;;;;;;129.50;45.20;;;;;;;;;;5081974;28;20459;-67
2024/03/05 05:36:54;;;;;;;132.20;45.60;;;;;;;;;;5081489;28;20442;-66
2024/03/05 05:39:24;;;;;;;139.67;46.27;;;;;;;;;;5078925;28;20961;-67
2024/03/05 05:41:50;;;;;;;142.23;48.37;;;;;;;;;;5079339;28;20460;-68
2024/03/05 05:44:17;;;;;;;154.60;48.73;;;;;;;;;;5068893;28;20468;-68
2024/03/05 05:46:45;;;;;;;146.67;48.03;;;;;;;;;;5085526;28;20482;-68
2024/03/05 05:49:20;;;;;;;147.90;46.93;;;;;;;;;;5078770;28;20440;-68
2024/03/05 05:51:47;;;;;;;136.73;45.27;;;;;;;;;;5082513;28;20479;-68
2024/03/05 05:54:13;;;;;;;137.07;48.00;;;;;;;;;;5081010;28;20535;-68
2024/03/05 05:56:39;;;;;;;134.33;44.10;;;;;;;;;;5067730;28;20456;-67
2024/03/05 05:59:08;;;;;;;163.80;48.90;;;;;;;;;;5079228;28;20483;-68
2024/03/05 06:01:37;;;;;;;148.87;47.03;;;;;;;;;;5079008;28;20895;-68
2024/03/05 06:04:06;;;;;;;153.87;49.00;;;;;;;;;;5082150;28;20448;-71
2024/03/05 06:06:33;;;;;;;148.00;47.83;;;;;;;;;;5073346;28;20910;-71
2024/03/05 06:09:08;;;;;;;135.70;45.03;;;;;;;;;;5084408;28;20450;-70
2024/03/05 06:11:34;;;;;;;132.87;42.97;;;;;;;;;;5081478;28;20529;-69
2024/03/05 06:14:02;;;;;;;136.60;45.73;;;;;;;;;;5080011;28;20502;-69
2024/03/05 06:16:29;;;;;;;130.57;41.97;;;;;;;;;;5076110;28;20440;-69
2024/03/05 06:18:55;;;;;;;118.47;41.70;;;;;;;;;;5088469;28;20509;-69
2024/03/05 06:21:22;;;;;;;145.17;43.67;;;;;;;;;;5084628;28;20541;-69
2024/03/05 06:23:50;;;;;;;130.47;41.40;;;;;;;;;;5078894;28;20483;-69
2024/03/05 06:26:17;;;;;;;113.43;41.73;;;;;;;;;;5080507;28;20455;-69
2024/03/05 06:28:43;;;;;;;114.70;42.00;;;;;;;;;;5076937;28;20535;-69
2024/03/05 06:31:10;;;;;;;116.87;42.03;;;;;;;;;;5075375;28;20457;-69
2024/03/05 06:33:37;;;;;;;115.93;40.47;;;;;;;;;;5071952;28;20452;-69
2024/03/05 06:36:06;;;;;;;112.23;39.07;;;;;;;;;;5077724;28;20516;-69
2024/03/05 06:38:32;;;;;;;126.50;39.77;;;;;;;;;;5077815;28;20455;-69
2024/03/05 06:41:00;;;;;;;111.97;41.13;;;;;;;;;;5077856;28;20507;-69
2024/03/05 06:43:32;;;;;;;112.00;40.40;;;;;;;;;;5077378;28;20504;-69
2024/03/05 06:45:59;;;;;;;110.23;39.33;;;;;;;;;;5076505;28;20526;-71
2024/03/05 06:48:26;;;;;;;97.17;36.97;;;;;;;;;;5076979;28;20483;-67
2024/03/05 06:50:57;;;;;;;89.40;36.03;;;;;;;;;;5076248;28;20447;-67
2024/03/05 06:58:54;;;;;;;92.20;39.50;;;;;;;;;;5077450;28;20447;-67
2024/03/05 07:01:20;;;;;;;100.50;39.57;;;;;;;;;;5077148;28;20487;-67
2024/03/05 07:03:48;;;;;;;96.30;38.07;;;;;;;;;;5077053;28;20486;-65
2024/03/05 07:06:14;;;;;;;88.63;36.10;;;;;;;;;;5077714;28;20454;-66
2024/03/05 07:08:42;;;;;;;100.53;39.00;;;;;;;;;;5075491;28;20511;-66
2024/03/05 07:11:11;;;;;;;90.77;37.50;;;;;;;;;;5073639;28;20444;-68
2024/03/05 07:13:38;;;;;;;93.73;39.00;;;;;;;;;;5072539;28;20447;-67
2024/03/05 07:16:07;;;;;;;88.93;36.97;;;;;;;;;;5077450;28;20468;-69
2024/03/05 07:18:34;;;;;;;85.53;37.33;;;;;;;;;;5076640;28;20463;-68
2024/03/05 07:21:01;;;;;;;91.40;36.93;;;;;;;;;;5077194;28;20487;-68
2024/03/05 07:23:28;;;;;;;93.77;37.30;;;;;;;;;;5074817;28;20479;-68
2024/03/05 07:25:55;;;;;;;96.20;37.73;;;;;;;;;;5077516;28;20451;-67
2024/03/05 07:28:23;;;;;;;80.23;35.70;;;;;;;;;;5073483;28;20473;-67
2024/03/05 07:30:49;;;;;;;93.00;36.73;;;;;;;;;;5077221;28;20479;-66
2024/03/05 07:33:17;;;;;;;97.37;39.63;;;;;;;;;;5076725;28;20491;-67
2024/03/05 07:35:46;;;;;;;107.90;37.57;;;;;;;;;;5077373;28;20459;-68
2024/03/05 07:38:12;;;;;;;92.70;38.10;;;;;;;;;;5077269;28;20493;-68
2024/03/05 07:40:38;;;;;;;90.47;38.10;;;;;;;;;;5076268;28;20556;-67
2024/03/05 07:43:05;;;;;;;82.40;37.97;;;;;;;;;;5073188;28;20464;-66
2024/03/05 07:45:33;;;;;;;85.00;35.67;;;;;;;;;;5075881;28;20452;-67
2024/03/05 07:47:59;;;;;;;98.60;37.37;;;;;;;;;;5078222;28;20483;-67
2024/03/05 07:50:27;;;;;;;77.10;32.83;;;;;;;;;;5080629;28;20954;-66
2024/03/05 07:52:57;;;;;;;80.77;35.70;;;;;;;;;;5080345;28;20525;-67
2024/03/05 07:55:24;;;;;;;83.80;36.67;;;;;;;;;;5080371;28;20451;-66
2024/03/05 07:57:52;;;;;;;78.20;36.13;;;;;;;;;;5080831;28;20529;-68
2024/03/05 08:00:20;;;;;;;84.07;35.90;;;;;;;;;;5081074;28;20474;-67
2024/03/05 08:02:48;;;;;;;97.47;36.50;;;;;;;;;;5080793;28;20468;-68
2024/03/05 08:05:17;;;;;;;85.77;33.33;;;;;;;;;;5080955;28;20479;-68
2024/03/05 08:07:44;;;;;;;75.03;34.10;;;;;;;;;;5078090;28;20447;-68
2024/03/05 08:10:12;;;;;;;85.40;35.43;;;;;;;;;;5081069;28;20467;-67
2024/03/05 08:12:42;;;;;;;85.87;35.00;;;;;;;;;;5080281;28;20460;-68
2024/03/05 08:15:12;;;;;;;74.73;33.77;;;;;;;;;;5081032;28;20448;-68
2024/03/05 08:17:39;;;;;;;78.63;33.87;;;;;;;;;;5080195;28;20456;-68
2024/03/05 08:20:07;;;;;;;82.77;33.87;;;;;;;;;;5077521;28;20979;-67
2024/03/05 08:22:34;;;;;;;79.63;34.73;;;;;;;;;;5080667;28;20471;-68
2024/03/05 08:25:07;;;;;;;78.23;36.30;;;;;;;;;;5073588;28;20452;-68
2024/03/05 08:27:33;;;;;;;78.23;35.27;;;;;;;;;;5076761;28;20888;-68
2024/03/05 08:30:00;;;;;;;75.83;35.70;;;;;;;;;;5080108;28;20455;-68
2024/03/05 08:32:26;;;;;;;82.17;36.13;;;;;;;;;;5079129;28;20452;-68
2024/03/05 08:34:53;;;;;;;76.77;35.30;;;;;;;;;;5076233;28;20988;-68
2024/03/05 08:37:20;;;;;;;78.30;34.90;;;;;;;;;;5080699;28;20468;-68
2024/03/05 08:39:47;;;;;;;69.90;32.60;;;;;;;;;;5078619;28;20456;-68
2024/03/05 08:42:13;;;;;;;76.60;32.80;;;;;;;;;;5073127;28;20560;-68
2024/03/05 08:44:40;;;;;;;79.23;35.10;;;;;;;;;;5077180;28;20460;-68
2024/03/05 08:47:07;;;;;;;61.67;31.40;;;;;;;;;;5078092;28;20491;-68
2024/03/05 08:49:33;;;;;;;74.73;33.90;;;;;;;;;;5079794;28;20454;-68
2024/03/05 08:52:03;;;;;;;68.87;34.60;;;;;;;;;;5079846;28;20476;-67
2024/03/05 08:54:31;;;;;;;71.00;33.70;;;;;;;;;;5078812;28;20440;-68
2024/03/05 08:56:58;;;;;;;70.43;32.60;;;;;;;;;;5074199;28;20562;-66
2024/03/05 08:59:24;;;;;;;62.73;32.00;;;;;;;;;;5079991;28;20448;-64
2024/03/05 09:01:52;;;;;;;64.50;32.80;;;;;;;;;;5079036;28;20929;-67
2024/03/05 09:04:18;;;;;;;70.83;31.43;;;;;;;;;;5079895;28;20471;-67
2024/03/05 09:06:45;;;;;;;60.73;29.80;;;;;;;;;;5078154;28;20455;-67
2024/03/05 09:09:12;;;;;;;64.93;31.77;;;;;;;;;;5079876;28;20459;-67
2024/03/05 09:11:40;;;;;;;57.27;29.70;;;;;;;;;;5079397;28;21045;-67
2024/03/05 09:14:06;;;;;;;54.10;28.90;;;;;;;;;;5079543;28;20495;-67
2024/03/05 09:16:32;;;;;;;65.57;31.73;;;;;;;;;;5079504;28;20444;-67
2024/03/05 09:18:59;;;;;;;56.37;29.10;;;;;;;;;;5079627;28;20449;-66
2024/03/05 09:21:25;;;;;;;53.00;30.07;;;;;;;;;;5079332;28;20488;-67
2024/03/05 09:23:52;;;;;;;55.97;28.37;;;;;;;;;;5077904;28;20448;-67
2024/03/05 09:26:18;;;;;;;52.23;28.70;;;;;;;;;;5079162;28;20452;-67
2024/03/05 09:28:46;;;;;;;51.30;29.57;;;;;;;;;;5076313;28;20494;-67
2024/03/05 09:31:12;;;;;;;47.30;28.30;;;;;;;;;;5078814;28;20456;-67
2024/03/05 09:33:40;;;;;;;50.80;30.33;;;;;;;;;;5078549;28;20492;-67
2024/03/05 09:36:08;;;;;;;45.87;28.40;;;;;;;;;;5074264;28;20482;-68
2024/03/05 09:38:35;;;;;;;50.43;29.37;;;;;;;;;;5074292;28;20482;-68
2024/03/05 09:41:02;;;;;;;43.50;28.47;;;;;;;;;;5077529;28;20491;-68
2024/03/05 09:43:29;;;;;;;44.23;28.40;;;;;;;;;;5073848;28;20460;-69
2024/03/05 09:46:03;;;;;;;43.67;27.83;;;;;;;;;;5076241;28;20452;-68
2024/03/05 09:48:30;;;;;;;46.33;30.33;;;;;;;;;;5075207;28;20518;-68
2024/03/05 09:50:56;;;;;;;38.47;28.37;;;;;;;;;;5078342;28;20437;-68
2024/03/05 09:53:23;;;;;;;39.40;28.37;;;;;;;;;;5078681;28;20478;-68
2024/03/05 09:55:51;;;;;;;42.57;29.07;;;;;;;;;;5077137;28;20479;-68
2024/03/05 09:58:23;;;;;;;45.27;30.20;;;;;;;;;;5076183;28;20518;-67
2024/03/05 10:00:51;;;;;;;42.47;27.27;;;;;;;;;;5077153;28;20487;-68
2024/03/05 10:03:20;;;;;;;44.83;27.23;;;;;;;;;;5078255;28;20531;-66
2024/03/05 10:05:46;;;;;;;38.77;24.93;;;;;;;;;;5064063;28;20456;-67
2024/03/05 10:08:14;;;;;;;42.70;25.80;;;;;;;;;;5077136;28;21496;-65
2024/03/05 10:10:40;;;;;;;45.93;29.20;;;;;;;;;;5078405;28;20519;-67
2024/03/05 10:13:07;;;;;;;38.23;26.57;;;;;;;;;;5078576;28;20482;-67
2024/03/05 10:15:35;;;;;;;40.57;26.87;;;;;;;;;;5078345;28;20470;-67
2024/03/05 10:18:02;;;;;;;43.40;27.43;;;;;;;;;;5075065;28;21131;-68
2024/03/05 10:20:32;;;;;;;49.37;30.00;;;;;;;;;;5078219;28;20452;-68
2024/03/05 10:22:58;;;;;;;43.37;27.33;;;;;;;;;;5071010;28;20459;-67
2024/03/05 10:25:25;;;;;;;44.90;27.77;;;;;;;;;;5067314;28;20465;-66
2024/03/05 10:27:52;;;;;;;51.53;30.60;;;;;;;;;;5072364;28;20454;-67
2024/03/05 10:30:22;;;;;;;50.60;29.30;;;;;;;;;;5073160;28;20888;-66
2024/03/05 10:32:52;;;;;;;43.43;27.97;;;;;;;;;;5077226;28;21194;-67
2024/03/05 10:35:18;;;;;;;49.10;29.60;;;;;;;;;;5078055;28;20472;-66
2024/03/05 10:37:55;;;;;;;48.23;29.20;;;;;;;;;;5078269;28;20479;-67
2024/03/05 10:40:21;;;;;;;52.70;29.70;;;;;;;;;;5077288;28;20443;-66
2024/03/05 10:42:49;;;;;;;51.83;30.83;;;;;;;;;;5075512;28;20519;-67
2024/03/05 10:45:16;;;;;;;48.87;28.23;;;;;;;;;;5075177;28;20452;-68
2024/03/05 10:47:43;;;;;;;48.73;29.30;;;;;;;;;;5071509;28;20987;-67
2024/03/05 10:50:13;;;;;;;53.83;30.60;;;;;;;;;;5077962;28;20483;-66
2024/03/05 10:52:40;;;;;;;42.73;27.10;;;;;;;;;;5077772;28;20489;-67
2024/03/05 10:55:11;;;;;;;48.60;29.00;;;;;;;;;;5075005;28;20513;-67
2024/03/05 10:58:13;;;;;;;51.10;28.60;;;;;;;;;;5077906;28;20483;-66
2024/03/05 11:00:24;;;;;;;51.37;30.00;;;;;;;;;;5077626;28;20440;-65
2024/03/05 11:02:51;;;;;;;50.40;28.13;;;;;;;;;;5073085;28;20491;-66
2024/03/05 11:05:18;;;;;;;45.33;28.60;;;;;;;;;;5072576;28;20440;-66
2024/03/05 11:07:47;;;;;;;44.87;27.00;;;;;;;;;;5075467;28;20878;-67
2024/03/05 11:10:15;;;;;;;44.43;26.30;;;;;;;;;;5069168;28;20927;-67
2024/03/05 11:12:42;;;;;;;45.73;27.03;;;;;;;;;;5077783;28;20476;-67
2024/03/05 11:15:12;;;;;;;45.30;26.20;;;;;;;;;;5074770;28;20527;-67
2024/03/05 11:17:38;;;;;;;42.03;26.63;;;;;;;;;;5075530;28;20471;-67
2024/03/05 11:20:11;;;;;;;52.63;28.77;;;;;;;;;;5082003;28;21015;-67
2024/03/05 11:22:43;;;;;;;58.70;30.37;;;;;;;;;;5078470;28;20487;-67
2024/03/05 11:25:29;;;;;;;48.20;28.27;;;;;;;;;;5080916;28;20447;-68
2024/03/05 11:27:57;;;;;;;45.47;26.50;;;;;;;;;;5077933;28;20460;-67
2024/03/05 11:30:24;;;;;;;42.30;27.33;;;;;;;;;;5081809;28;20447;-67
2024/03/05 11:32:52;;;;;;;47.17;29.33;;;;;;;;;;5081127;28;20444;-68
2024/03/05 11:35:19;;;;;;;53.27;29.47;;;;;;;;;;5081881;28;20459;-67
2024/03/05 11:37:47;;;;;;;54.53;29.47;;;;;;;;;;5081362;28;20977;-68
2024/03/05 11:40:14;;;;;;;58.37;29.83;;;;;;;;;;5081154;28;20448;-67
2024/03/05 11:42:45;;;;;;;60.33;31.30;;;;;;;;;;5070488;28;20494;-67
2024/03/05 11:45:32;;;;;;;57.10;30.80;;;;;;;;;;5077966;28;20454;-67
2024/03/05 11:48:00;;;;;;;61.40;31.13;;;;;;;;;;5072775;28;20527;-67
2024/03/05 11:50:26;;;;;;;60.57;30.80;;;;;;;;;;5073813;28;20460;-67
2024/03/05 11:52:53;;;;;;;56.80;32.27;;;;;;;;;;5080984;28;20467;-67
2024/03/05 11:55:25;;;;;;;68.57;32.93;;;;;;;;;;5080747;28;20472;-67
2024/03/05 11:57:55;;;;;;;62.53;33.17;;;;;;;;;;5081097;28;20507;-67
2024/03/05 12:00:26;;;;;;;67.03;32.27;;;;;;;;;;5080494;28;20491;-68
2024/03/05 12:02:53;;;;;;;66.30;32.57;;;;;;;;;;5080388;28;20490;-67
2024/03/05 12:05:19;;;;;;;77.53;35.33;;;;;;;;;;5077689;28;20443;-67
2024/03/05 12:07:58;;;;;;;67.90;33.50;;;;;;;;;;5070409;28;20545;-67
2024/03/05 12:10:27;;;;;;;62.13;31.57;;;;;;;;;;5077993;28;20479;-67
2024/03/05 12:12:53;;;;;;;66.67;33.47;;;;;;;;;;5066041;28;20909;-66
2024/03/05 12:15:20;;;;;;;68.50;33.70;;;;;;;;;;5076135;28;20535;-67
2024/03/05 12:17:48;;;;;;;69.20;33.53;;;;;;;;;;5078979;28;20450;-67
2024/03/05 12:20:19;;;;;;;60.90;31.87;;;;;;;;;;5080491;28;20842;-66
2024/03/05 12:22:49;;;;;;;68.20;33.33;;;;;;;;;;5078583;28;20862;-67
2024/03/05 12:25:15;;;;;;;61.97;35.10;;;;;;;;;;5073414;28;20546;-67
2024/03/05 12:27:46;;;;;;;57.20;30.80;;;;;;;;;;5074691;28;20476;-67
2024/03/05 12:30:12;;;;;;;64.30;31.27;;;;;;;;;;5070793;28;20471;-67
2024/03/05 12:32:42;;;;;;;62.40;33.47;;;;;;;;;;5080269;28;20476;-67
2024/03/05 12:35:11;;;;;;;66.43;33.10;;;;;;;;;;5080601;28;20450;-66
2024/03/05 12:37:39;;;;;;;58.03;30.53;;;;;;;;;;5080595;28;20483;-67
2024/03/05 12:40:08;;;;;;;59.57;29.37;;;;;;;;;;5079835;28;21241;-67
2024/03/05 12:42:35;;;;;;;57.80;29.53;;;;;;;;;;5079004;28;20541;-67
2024/03/05 12:45:05;;;;;;;51.53;28.60;;;;;;;;;;5080376;28;20483;-67
2024/03/05 12:47:32;;;;;;;49.60;27.83;;;;;;;;;;5079340;28;20452;-67
2024/03/05 12:50:00;;;;;;;44.40;25.30;;;;;;;;;;5079817;28;20483;-67
2024/03/05 12:52:28;;;;;;;40.97;23.83;;;;;;;;;;5074348;28;21053;-67
2024/03/05 12:54:59;;;;;;;35.70;23.13;;;;;;;;;;5080257;28;20440;-66
2024/03/05 12:57:25;;;;;;;36.90;24.63;;;;;;;;;;5079440;28;21007;-66
2024/03/05 12:59:52;;;;;;;38.70;22.40;;;;;;;;;;5080019;28;20466;-66
2024/03/05 13:02:18;;;;;;;31.33;21.53;;;;;;;;;;5079316;28;20527;-67
2024/03/05 13:04:45;;;;;;;33.70;20.90;;;;;;;;;;5068939;28;20440;-66
2024/03/05 13:07:11;;;;;;;33.73;20.07;;;;;;;;;;5080270;28;20452;-66
2024/03/05 13:09:39;;;;;;;30.13;17.40;;;;;;;;;;5077359;28;20494;-67
2024/03/05 13:12:07;;;;;;;27.70;17.93;;;;;;;;;;5074165;28;20457;-67
2024/03/05 13:14:33;;;;;;;32.00;18.40;;;;;;;;;;5079791;28;20452;-67
2024/03/05 13:17:00;;;;;;;24.57;16.60;;;;;;;;;;5079686;28;20448;-66
2024/03/05 13:19:26;;;;;;;27.30;16.20;;;;;;;;;;5079283;28;20488;-67
2024/03/05 13:21:53;;;;;;;28.57;16.07;;;;;;;;;;5079124;28;20519;-67
2024/03/05 13:24:21;;;;;;;24.80;15.67;;;;;;;;;;5079450;28;20443;-67
2024/03/05 13:26:49;;;;;;;21.50;14.40;;;;;;;;;;5078473;28;20467;-67
2024/03/05 13:29:16;;;;;;;17.17;13.80;;;;;;;;;;5069419;28;20469;-67
2024/03/05 13:31:42;;;;;;;19.37;13.03;;;;;;;;;;5076600;28;20474;-67
2024/03/05 13:34:09;;;;;;;21.13;12.97;;;;;;;;;;5071808;28;20448;-67
2024/03/05 13:36:36;;;;;;;22.23;13.50;;;;;;;;;;5084793;28;20452;-66
2024/03/05 13:39:08;;;;;;;20.73;13.10;;;;;;;;;;5078778;28;20474;-67
2024/03/05 13:41:34;;;;;;;19.43;13.67;;;;;;;;;;5078295;28;20525;-67
2024/03/05 13:44:02;;;;;;;18.10;14.03;;;;;;;;;;5081273;28;20448;-66
2024/03/05 13:46:30;;;;;;;22.67;13.30;;;;;;;;;;5078868;28;20458;-67
2024/03/05 13:48:58;;;;;;;19.13;12.97;;;;;;;;;;5082312;28;20491;-66
2024/03/05 13:51:26;;;;;;;16.97;12.77;;;;;;;;;;5071254;28;20479;-67
2024/03/05 13:53:52;;;;;;;22.57;13.57;;;;;;;;;;5076083;28;20482;-67
2024/03/05 13:56:18;;;;;;;20.50;13.83;;;;;;;;;;5080163;28;20471;-67
2024/03/05 13:58:45;;;;;;;20.57;15.20;;;;;;;;;;5063485;28;20477;-67
2024/03/05 14:01:13;;;;;;;17.40;13.13;;;;;;;;;;5057880;28;20492;-68
2024/03/05 14:03:39;;;;;;;21.60;14.97;;;;;;;;;;5055134;28;20488;-67
2024/03/05 14:06:06;;;;;;;21.10;14.63;;;;;;;;;;5060335;28;20511;-67
2024/03/05 14:08:33;;;;;;;20.83;14.47;;;;;;;;;;5057215;28;20477;-67
2024/03/05 14:11:01;;;;;;;20.50;15.53;;;;;;;;;;5050286;28;20448;-66
2024/03/05 14:13:27;;;;;;;21.83;16.17;;;;;;;;;;5064221;28;20478;-67
2024/03/05 14:15:54;;;;;;;21.30;15.50;;;;;;;;;;5057951;28;20451;-67
2024/03/05 14:18:22;;;;;;;25.57;16.87;;;;;;;;;;5056068;28;20471;-67